sensor_id;sensor_type;location;lat;lon;timestamp;P1;durP1;ratioP1;P2;durP2;ratioP2
43429;SDS011;29028;43.234;27.896;2023-01-20T15:04:59;5.78;;;2.15;;
43429;SDS011;29028;43.234;27.896;2023-01-20T15:05:26;3.30;;;1.42;;
43429;SDS011;29028;43.234;27.896;2023-01-20T15:05:52;3.65;;;1.20;;
43429;SDS011;29028;43.234;27.896;2023-01-20T15:06:18;5.22;;;1.60;;
43429;SDS011;29028;43.234;27.896;2023-01-20T15:06:41;3.60;;;1.40;;
43429;SDS011;29028;43.234;27.896;2023-01-20T15:07:02;3.80;;;1.40;;
43429;SDS011;29028;43.234;27.896;2023-01-20T15:07:24;5.13;;;1.40;;
43429;SDS011;29028;43.234;27.896;2023-01-20T15:07:46;5.60;;;1.33;;
43429;SDS011;29028;43.234;27.896;2023-01-20T15:08:18;3.55;;;1.20;;
43429;SDS011;29028;43.234;27.896;2023-01-20T15:08:44;3.63;;;1.50;;
43429;SDS011;29028;43.234;27.896;2023-01-20T15:09:21;6.22;;;1.55;;
43429;SDS011;29028;43.234;27.896;2023-01-20T15:09:53;3.00;;;1.40;;
43429;SDS011;29028;43.234;27.896;2023-01-20T15:10:16;2.58;;;1.38;;
43429;SDS011;29028;43.234;27.896;2023-01-20T15:10:38;3.05;;;1.20;;
43429;SDS011;29028;43.234;27.896;2023-01-20T15:11:22;1.98;;;1.20;;
43429;SDS011;29028;43.234;27.896;2023-01-20T15:11:44;2.83;;;1.33;;
43429;SDS011;29028;43.234;27.896;2023-01-20T15:13:02;2.93;;;1.20;;
43429;SDS011;29028;43.234;27.896;2023-01-20T15:13:24;4.25;;;1.38;;
43429;SDS011;29028;43.234;27.896;2023-01-20T15:14:05;2.53;;;0.93;;
43429;SDS011;29028;43.234;27.896;2023-01-20T15:14:30;2.30;;;1.20;;
43429;SDS011;29028;43.234;27.896;2023-01-20T15:14:58;3.55;;;1.45;;
43429;SDS011;29028;43.234;27.896;2023-01-20T15:15:30;2.95;;;1.30;;
43429;SDS011;29028;43.234;27.896;2023-01-20T15:15:53;4.22;;;1.50;;
43429;SDS011;29028;43.234;27.896;2023-01-20T15:16:27;4.05;;;1.30;;
43429;SDS011;29028;43.234;27.896;2023-01-20T15:16:49;2.25;;;1.30;;
43429;SDS011;29028;43.234;27.896;2023-01-20T15:17:13;3.38;;;1.48;;
43429;SDS011;29028;43.234;27.896;2023-01-20T15:17:40;3.10;;;1.65;;
43429;SDS011;29028;43.234;27.896;2023-01-20T15:18:17;2.97;;;1.50;;
43429;SDS011;29028;43.234;27.896;2023-01-20T15:18:39;2.58;;;1.40;;
43429;SDS011;29028;43.234;27.896;2023-01-20T15:19:50;2.70;;;1.50;;
43429;SDS011;29028;43.234;27.896;2023-01-20T15:20:28;3.75;;;1.40;;
43429;SDS011;29028;43.234;27.896;2023-01-20T15:20:52;1.73;;;1.00;;
43429;SDS011;29028;43.234;27.896;2023-01-20T15:21:21;2.08;;;1.20;;
43429;SDS011;29028;43.234;27.896;2023-01-20T15:21:47;1.95;;;1.00;;
43429;SDS011;29028;43.234;27.896;2023-01-20T15:22:19;2.35;;;1.05;;
43429;SDS011;29028;43.234;27.896;2023-01-20T15:22:41;1.75;;;1.23;;
43429;SDS011;29028;43.234;27.896;2023-01-20T15:23:09;1.60;;;1.10;;
43429;SDS011;29028;43.234;27.896;2023-01-20T15:23:34;3.17;;;1.30;;
43429;SDS011;29028;43.234;27.896;2023-01-20T15:24:05;4.28;;;1.38;;
43429;SDS011;29028;43.234;27.896;2023-01-20T15:24:32;3.80;;;1.23;;
43429;SDS011;29028;43.234;27.896;2023-01-20T15:24:54;4.45;;;1.63;;
43429;SDS011;29028;43.234;27.896;2023-01-20T15:25:19;4.32;;;1.50;;
43429;SDS011;29028;43.234;27.896;2023-01-20T15:25:41;2.40;;;1.13;;
43429;SDS011;29028;43.234;27.896;2023-01-20T15:26:06;1.90;;;1.00;;
43429;SDS011;29028;43.234;27.896;2023-01-20T15:26:29;1.95;;;1.15;;
43429;SDS011;29028;43.234;27.896;2023-01-20T15:26:51;3.70;;;1.30;;
43429;SDS011;29028;43.234;27.896;2023-01-20T15:27:53;2.10;;;1.15;;
43429;SDS011;29028;43.234;27.896;2023-01-20T15:28:17;2.97;;;1.00;;
43429;SDS011;29028;43.234;27.896;2023-01-20T15:28:43;2.50;;;1.08;;
43429;SDS011;29028;43.234;27.896;2023-01-20T15:29:17;2.85;;;1.23;;
43429;SDS011;29028;43.234;27.896;2023-01-20T15:29:39;2.60;;;1.37;;
43429;SDS011;29028;43.234;27.896;2023-01-20T15:30:03;4.00;;;1.70;;
43429;SDS011;29028;43.234;27.896;2023-01-20T15:30:34;3.83;;;1.67;;
43429;SDS011;29028;43.234;27.896;2023-01-20T15:30:56;4.90;;;2.10;;
43429;SDS011;29028;43.234;27.896;2023-01-20T15:31:18;5.22;;;1.90;;
43429;SDS011;29028;43.234;27.896;2023-01-20T15:31:39;5.10;;;1.40;;
43429;SDS011;29028;43.234;27.896;2023-01-20T15:32:02;3.80;;;1.40;;
43429;SDS011;29028;43.234;27.896;2023-01-20T15:32:30;2.85;;;1.38;;
43429;SDS011;29028;43.234;27.896;2023-01-20T15:32:50;1.92;;;1.15;;
43429;SDS011;29028;43.234;27.896;2023-01-20T15:33:11;2.30;;;1.00;;
43429;SDS011;29028;43.234;27.896;2023-01-20T15:33:33;3.70;;;1.23;;
43429;SDS011;29028;43.234;27.896;2023-01-20T15:33:54;2.85;;;1.10;;
43429;SDS011;29028;43.234;27.896;2023-01-20T15:34:15;3.05;;;1.52;;
43429;SDS011;29028;43.234;27.896;2023-01-20T15:34:37;3.63;;;2.35;;
43429;SDS011;29028;43.234;27.896;2023-01-20T15:34:58;2.20;;;1.48;;
43429;SDS011;29028;43.234;27.896;2023-01-20T15:35:19;2.72;;;1.38;;
43429;SDS011;29028;43.234;27.896;2023-01-20T15:35:43;3.20;;;1.30;;
43429;SDS011;29028;43.234;27.896;2023-01-20T15:36:13;2.63;;;1.35;;
43429;SDS011;29028;43.234;27.896;2023-01-20T15:36:39;2.28;;;1.30;;
43429;SDS011;29028;43.234;27.896;2023-01-20T15:37:00;3.03;;;1.40;;
43429;SDS011;29028;43.234;27.896;2023-01-20T15:37:22;2.75;;;1.40;;
43429;SDS011;29028;43.234;27.896;2023-01-20T15:37:44;2.35;;;1.55;;
43429;SDS011;29028;43.234;27.896;2023-01-20T15:38:08;2.70;;;1.70;;
43429;SDS011;29028;43.234;27.896;2023-01-20T15:38:31;1.95;;;1.30;;
43429;SDS011;29028;43.234;27.896;2023-01-20T15:38:52;2.15;;;1.38;;
43429;SDS011;29028;43.234;27.896;2023-01-20T15:39:13;2.83;;;1.70;;
43429;SDS011;29028;43.234;27.896;2023-01-20T15:39:35;2.85;;;1.88;;
43429;SDS011;29028;43.234;27.896;2023-01-20T15:39:57;2.53;;;1.55;;
43429;SDS011;29028;43.234;27.896;2023-01-20T15:40:19;2.58;;;1.20;;
43429;SDS011;29028;43.234;27.896;2023-01-20T15:40:41;2.83;;;1.35;;
43429;SDS011;29028;43.234;27.896;2023-01-20T15:41:03;2.85;;;1.60;;
43429;SDS011;29028;43.234;27.896;2023-01-20T15:41:24;3.08;;;1.38;;
43429;SDS011;29028;43.234;27.896;2023-01-20T15:41:45;2.30;;;1.50;;
43429;SDS011;29028;43.234;27.896;2023-01-20T15:42:08;1.85;;;1.40;;
43429;SDS011;29028;43.234;27.896;2023-01-20T15:42:31;2.30;;;1.30;;
43429;SDS011;29028;43.234;27.896;2023-01-20T15:42:52;1.90;;;1.30;;
43429;SDS011;29028;43.234;27.896;2023-01-20T15:43:13;2.55;;;1.48;;
43429;SDS011;29028;43.234;27.896;2023-01-20T15:43:35;2.85;;;1.65;;
43429;SDS011;29028;43.234;27.896;2023-01-20T15:43:56;2.83;;;1.55;;
43429;SDS011;29028;43.234;27.896;2023-01-20T15:44:17;2.60;;;1.63;;
43429;SDS011;29028;43.234;27.896;2023-01-20T15:44:38;2.27;;;1.50;;
43429;SDS011;29028;43.234;27.896;2023-01-20T15:45:00;2.28;;;1.17;;
43429;SDS011;29028;43.234;27.896;2023-01-20T15:45:20;2.33;;;1.58;;
43429;SDS011;29028;43.234;27.896;2023-01-20T15:45:41;5.25;;;1.60;;
43429;SDS011;29028;43.234;27.896;2023-01-20T15:46:04;2.10;;;1.38;;
43429;SDS011;29028;43.234;27.896;2023-01-20T15:46:29;2.20;;;1.50;;
43429;SDS011;29028;43.234;27.896;2023-01-20T15:46:50;2.53;;;1.52;;
43429;SDS011;29028;43.234;27.896;2023-01-20T15:47:15;2.47;;;1.50;;
43429;SDS011;29028;43.234;27.896;2023-01-20T15:47:40;2.45;;;1.60;;
43429;SDS011;29028;43.234;27.896;2023-01-20T15:48:02;1.95;;;1.33;;
43429;SDS011;29028;43.234;27.896;2023-01-20T15:48:31;2.05;;;1.25;;
43429;SDS011;29028;43.234;27.896;2023-01-20T15:48:52;2.75;;;1.40;;
43429;SDS011;29028;43.234;27.896;2023-01-20T15:49:14;2.45;;;1.30;;
43429;SDS011;29028;43.234;27.896;2023-01-20T15:49:35;2.25;;;1.40;;
43429;SDS011;29028;43.234;27.896;2023-01-20T15:49:55;1.93;;;1.40;;
43429;SDS011;29028;43.234;27.896;2023-01-20T15:50:17;2.80;;;1.55;;
43429;SDS011;29028;43.234;27.896;2023-01-20T15:50:42;2.95;;;1.77;;
43429;SDS011;29028;43.234;27.896;2023-01-20T15:51:04;3.75;;;1.75;;
43429;SDS011;29028;43.234;27.896;2023-01-20T15:51:26;4.82;;;1.77;;
43429;SDS011;29028;43.234;27.896;2023-01-20T15:51:47;2.70;;;1.90;;
43429;SDS011;29028;43.234;27.896;2023-01-20T15:52:09;3.03;;;2.10;;
43429;SDS011;29028;43.234;27.896;2023-01-20T15:52:31;3.47;;;2.00;;
43429;SDS011;29028;43.234;27.896;2023-01-20T15:52:52;3.80;;;1.90;;
43429;SDS011;29028;43.234;27.896;2023-01-20T15:53:14;3.60;;;2.03;;
43429;SDS011;29028;43.234;27.896;2023-01-20T15:53:35;3.65;;;2.15;;
43429;SDS011;29028;43.234;27.896;2023-01-20T15:53:56;2.67;;;2.08;;
43429;SDS011;29028;43.234;27.896;2023-01-20T15:54:17;2.97;;;2.15;;
43429;SDS011;29028;43.234;27.896;2023-01-20T15:54:38;3.23;;;2.23;;
43429;SDS011;29028;43.234;27.896;2023-01-20T15:54:59;3.90;;;2.17;;
43429;SDS011;29028;43.234;27.896;2023-01-20T15:55:20;3.50;;;2.20;;
43429;SDS011;29028;43.234;27.896;2023-01-20T15:55:44;3.20;;;2.10;;
43429;SDS011;29028;43.234;27.896;2023-01-20T15:56:09;3.10;;;1.85;;
43429;SDS011;29028;43.234;27.896;2023-01-20T15:56:36;3.60;;;2.10;;
43429;SDS011;29028;43.234;27.896;2023-01-20T15:57:00;3.10;;;2.20;;
43429;SDS011;29028;43.234;27.896;2023-01-20T15:57:21;2.80;;;2.10;;
43429;SDS011;29028;43.234;27.896;2023-01-20T15:57:43;3.75;;;2.47;;
43429;SDS011;29028;43.234;27.896;2023-01-20T15:58:10;4.32;;;2.45;;
43429;SDS011;29028;43.234;27.896;2023-01-20T15:58:40;3.22;;;2.33;;
43429;SDS011;29028;43.234;27.896;2023-01-20T15:59:02;3.20;;;2.40;;
43429;SDS011;29028;43.234;27.896;2023-01-20T15:59:29;3.70;;;2.60;;
43429;SDS011;29028;43.234;27.896;2023-01-20T15:59:51;3.33;;;2.28;;
43429;SDS011;29028;43.234;27.896;2023-01-20T16:00:16;3.45;;;2.03;;
43429;SDS011;29028;43.234;27.896;2023-01-20T16:00:39;3.50;;;2.30;;
43429;SDS011;29028;43.234;27.896;2023-01-20T16:01:02;2.95;;;2.00;;
43429;SDS011;29028;43.234;27.896;2023-01-20T16:01:24;2.33;;;1.70;;
43429;SDS011;29028;43.234;27.896;2023-01-20T16:01:46;2.80;;;1.60;;
43429;SDS011;29028;43.234;27.896;2023-01-20T16:02:12;2.55;;;1.58;;
43429;SDS011;29028;43.234;27.896;2023-01-20T16:02:37;3.00;;;1.77;;
43429;SDS011;29028;43.234;27.896;2023-01-20T16:02:58;2.75;;;1.80;;
43429;SDS011;29028;43.234;27.896;2023-01-20T16:03:20;3.28;;;1.80;;
43429;SDS011;29028;43.234;27.896;2023-01-20T16:03:41;2.78;;;1.70;;
43429;SDS011;29028;43.234;27.896;2023-01-20T16:04:02;3.58;;;1.70;;
43429;SDS011;29028;43.234;27.896;2023-01-20T16:04:23;3.70;;;1.70;;
43429;SDS011;29028;43.234;27.896;2023-01-20T16:04:47;2.08;;;1.30;;
43429;SDS011;29028;43.234;27.896;2023-01-20T16:05:09;2.17;;;1.42;;
43429;SDS011;29028;43.234;27.896;2023-01-20T16:05:30;2.85;;;1.60;;
43429;SDS011;29028;43.234;27.896;2023-01-20T16:05:53;2.92;;;1.40;;
43429;SDS011;29028;43.234;27.896;2023-01-20T16:06:16;2.78;;;1.67;;
43429;SDS011;29028;43.234;27.896;2023-01-20T16:06:39;3.42;;;1.70;;
43429;SDS011;29028;43.234;27.896;2023-01-20T16:07:00;3.30;;;1.60;;
43429;SDS011;29028;43.234;27.896;2023-01-20T16:07:20;2.00;;;1.50;;
43429;SDS011;29028;43.234;27.896;2023-01-20T16:07:43;2.00;;;1.30;;
43429;SDS011;29028;43.234;27.896;2023-01-20T16:08:09;2.25;;;1.50;;
43429;SDS011;29028;43.234;27.896;2023-01-20T16:08:34;2.65;;;1.40;;
43429;SDS011;29028;43.234;27.896;2023-01-20T16:08:56;3.00;;;1.10;;
43429;SDS011;29028;43.234;27.896;2023-01-20T16:09:22;2.85;;;1.00;;
43429;SDS011;29028;43.234;27.896;2023-01-20T16:09:44;2.25;;;1.20;;
43429;SDS011;29028;43.234;27.896;2023-01-20T16:10:08;3.00;;;1.33;;
43429;SDS011;29028;43.234;27.896;2023-01-20T16:10:32;3.42;;;1.40;;
43429;SDS011;29028;43.234;27.896;2023-01-20T16:10:55;4.00;;;1.48;;
43429;SDS011;29028;43.234;27.896;2023-01-20T16:11:16;4.07;;;1.40;;
43429;SDS011;29028;43.234;27.896;2023-01-20T16:11:38;2.58;;;1.50;;
43429;SDS011;29028;43.234;27.896;2023-01-20T16:12:01;2.90;;;1.80;;
43429;SDS011;29028;43.234;27.896;2023-01-20T16:12:22;3.00;;;1.63;;
43429;SDS011;29028;43.234;27.896;2023-01-20T16:12:43;2.67;;;1.52;;
43429;SDS011;29028;43.234;27.896;2023-01-20T16:13:07;3.22;;;1.90;;
43429;SDS011;29028;43.234;27.896;2023-01-20T16:13:30;2.40;;;1.52;;
43429;SDS011;29028;43.234;27.896;2023-01-20T16:13:51;2.50;;;1.40;;
43429;SDS011;29028;43.234;27.896;2023-01-20T16:14:12;2.05;;;1.40;;
43429;SDS011;29028;43.234;27.896;2023-01-20T16:14:33;1.98;;;1.35;;
43429;SDS011;29028;43.234;27.896;2023-01-20T16:14:55;3.47;;;1.52;;
43429;SDS011;29028;43.234;27.896;2023-01-20T16:15:17;3.75;;;1.60;;
43429;SDS011;29028;43.234;27.896;2023-01-20T16:15:38;3.85;;;2.00;;
43429;SDS011;29028;43.234;27.896;2023-01-20T16:16:02;3.63;;;2.35;;
43429;SDS011;29028;43.234;27.896;2023-01-20T16:16:23;4.50;;;2.50;;
43429;SDS011;29028;43.234;27.896;2023-01-20T16:16:43;3.88;;;2.28;;
43429;SDS011;29028;43.234;27.896;2023-01-20T16:17:09;3.50;;;2.30;;
43429;SDS011;29028;43.234;27.896;2023-01-20T16:17:34;3.05;;;2.00;;
43429;SDS011;29028;43.234;27.896;2023-01-20T16:17:55;3.65;;;2.00;;
43429;SDS011;29028;43.234;27.896;2023-01-20T16:18:16;3.70;;;2.20;;
43429;SDS011;29028;43.234;27.896;2023-01-20T16:18:38;3.45;;;2.30;;
43429;SDS011;29028;43.234;27.896;2023-01-20T16:18:59;3.30;;;2.20;;
43429;SDS011;29028;43.234;27.896;2023-01-20T16:19:20;3.13;;;1.90;;
43429;SDS011;29028;43.234;27.896;2023-01-20T16:19:41;3.45;;;1.83;;
43429;SDS011;29028;43.234;27.896;2023-01-20T16:20:03;3.53;;;1.90;;
43429;SDS011;29028;43.234;27.896;2023-01-20T16:20:33;3.22;;;1.80;;
43429;SDS011;29028;43.234;27.896;2023-01-20T16:20:55;3.42;;;1.83;;
43429;SDS011;29028;43.234;27.896;2023-01-20T16:21:18;2.78;;;1.60;;
43429;SDS011;29028;43.234;27.896;2023-01-20T16:21:39;3.00;;;2.00;;
43429;SDS011;29028;43.234;27.896;2023-01-20T16:21:59;3.40;;;2.30;;
43429;SDS011;29028;43.234;27.896;2023-01-20T16:22:22;2.72;;;2.03;;
43429;SDS011;29028;43.234;27.896;2023-01-20T16:22:43;4.60;;;2.20;;
43429;SDS011;29028;43.234;27.896;2023-01-20T16:23:04;3.33;;;2.30;;
43429;SDS011;29028;43.234;27.896;2023-01-20T16:23:25;4.15;;;2.45;;
43429;SDS011;29028;43.234;27.896;2023-01-20T16:23:47;4.35;;;2.63;;
43429;SDS011;29028;43.234;27.896;2023-01-20T16:24:08;3.85;;;2.70;;
43429;SDS011;29028;43.234;27.896;2023-01-20T16:24:29;3.30;;;2.72;;
43429;SDS011;29028;43.234;27.896;2023-01-20T16:24:49;3.40;;;2.60;;
43429;SDS011;29028;43.234;27.896;2023-01-20T16:25:11;3.50;;;2.53;;
43429;SDS011;29028;43.234;27.896;2023-01-20T16:25:32;3.38;;;2.50;;
43429;SDS011;29028;43.234;27.896;2023-01-20T16:25:53;3.50;;;2.23;;
43429;SDS011;29028;43.234;27.896;2023-01-20T16:26:20;3.85;;;2.10;;
43429;SDS011;29028;43.234;27.896;2023-01-20T16:26:44;3.65;;;2.28;;
43429;SDS011;29028;43.234;27.896;2023-01-20T16:27:12;4.05;;;2.17;;
43429;SDS011;29028;43.234;27.896;2023-01-20T16:27:36;3.10;;;2.30;;
43429;SDS011;29028;43.234;27.896;2023-01-20T16:27:57;3.13;;;2.38;;
43429;SDS011;29028;43.234;27.896;2023-01-20T16:28:20;4.20;;;2.30;;
43429;SDS011;29028;43.234;27.896;2023-01-20T16:28:43;3.70;;;2.40;;
43429;SDS011;29028;43.234;27.896;2023-01-20T16:29:04;3.77;;;2.57;;
43429;SDS011;29028;43.234;27.896;2023-01-20T16:29:25;3.65;;;2.47;;
43429;SDS011;29028;43.234;27.896;2023-01-20T16:29:46;3.60;;;2.50;;
43429;SDS011;29028;43.234;27.896;2023-01-20T16:30:10;3.30;;;2.58;;
43429;SDS011;29028;43.234;27.896;2023-01-20T16:30:34;3.17;;;2.15;;
43429;SDS011;29028;43.234;27.896;2023-01-20T16:30:56;4.05;;;2.60;;
43429;SDS011;29028;43.234;27.896;2023-01-20T16:31:17;4.60;;;2.97;;
43429;SDS011;29028;43.234;27.896;2023-01-20T16:31:38;3.85;;;2.53;;
43429;SDS011;29028;43.234;27.896;2023-01-20T16:31:59;3.47;;;2.20;;
43429;SDS011;29028;43.234;27.896;2023-01-20T16:32:19;3.28;;;2.20;;
43429;SDS011;29028;43.234;27.896;2023-01-20T16:32:43;3.13;;;2.10;;
43429;SDS011;29028;43.234;27.896;2023-01-20T16:33:13;3.60;;;2.20;;
43429;SDS011;29028;43.234;27.896;2023-01-20T16:33:35;4.03;;;1.90;;
43429;SDS011;29028;43.234;27.896;2023-01-20T16:33:57;4.07;;;1.80;;
43429;SDS011;29028;43.234;27.896;2023-01-20T16:34:18;3.70;;;1.95;;
43429;SDS011;29028;43.234;27.896;2023-01-20T16:34:39;3.65;;;2.30;;
43429;SDS011;29028;43.234;27.896;2023-01-20T16:35:00;4.07;;;2.50;;
43429;SDS011;29028;43.234;27.896;2023-01-20T16:35:22;4.05;;;2.83;;
43429;SDS011;29028;43.234;27.896;2023-01-20T16:35:44;5.53;;;2.70;;
43429;SDS011;29028;43.234;27.896;2023-01-20T16:36:08;4.35;;;2.03;;
43429;SDS011;29028;43.234;27.896;2023-01-20T16:36:32;3.53;;;2.10;;
43429;SDS011;29028;43.234;27.896;2023-01-20T16:36:53;4.07;;;2.17;;
43429;SDS011;29028;43.234;27.896;2023-01-20T16:37:13;4.55;;;2.30;;
43429;SDS011;29028;43.234;27.896;2023-01-20T16:37:35;3.70;;;2.22;;
43429;SDS011;29028;43.234;27.896;2023-01-20T16:37:56;4.28;;;2.30;;
43429;SDS011;29028;43.234;27.896;2023-01-20T16:38:17;4.70;;;2.30;;
43429;SDS011;29028;43.234;27.896;2023-01-20T16:38:40;3.25;;;2.10;;
43429;SDS011;29028;43.234;27.896;2023-01-20T16:39:02;4.43;;;2.42;;
43429;SDS011;29028;43.234;27.896;2023-01-20T16:39:23;4.07;;;2.42;;
43429;SDS011;29028;43.234;27.896;2023-01-20T16:39:44;4.15;;;2.10;;
43429;SDS011;29028;43.234;27.896;2023-01-20T16:40:05;4.10;;;2.10;;
43429;SDS011;29028;43.234;27.896;2023-01-20T16:40:30;3.67;;;2.30;;
43429;SDS011;29028;43.234;27.896;2023-01-20T16:40:51;4.18;;;2.20;;
43429;SDS011;29028;43.234;27.896;2023-01-20T16:41:15;4.45;;;2.10;;
43429;SDS011;29028;43.234;27.896;2023-01-20T16:41:40;4.50;;;2.10;;
43429;SDS011;29028;43.234;27.896;2023-01-20T16:42:07;4.65;;;2.10;;
43429;SDS011;29028;43.234;27.896;2023-01-20T16:42:30;4.85;;;2.10;;
43429;SDS011;29028;43.234;27.896;2023-01-20T16:42:54;4.47;;;2.20;;
43429;SDS011;29028;43.234;27.896;2023-01-20T16:43:15;4.18;;;1.95;;
43429;SDS011;29028;43.234;27.896;2023-01-20T16:43:38;3.33;;;1.83;;
43429;SDS011;29028;43.234;27.896;2023-01-20T16:44:01;3.53;;;2.03;;
43429;SDS011;29028;43.234;27.896;2023-01-20T16:44:23;3.80;;;1.90;;
43429;SDS011;29028;43.234;27.896;2023-01-20T16:44:44;3.58;;;1.77;;
43429;SDS011;29028;43.234;27.896;2023-01-20T16:45:07;3.85;;;2.22;;
43429;SDS011;29028;43.234;27.896;2023-01-20T16:45:41;4.30;;;2.50;;
43429;SDS011;29028;43.234;27.896;2023-01-20T16:46:02;5.47;;;2.58;;
43429;SDS011;29028;43.234;27.896;2023-01-20T16:46:23;6.13;;;2.80;;
43429;SDS011;29028;43.234;27.896;2023-01-20T16:46:46;4.10;;;2.10;;
43429;SDS011;29028;43.234;27.896;2023-01-20T16:47:07;4.15;;;1.95;;
43429;SDS011;29028;43.234;27.896;2023-01-20T16:47:28;4.03;;;2.10;;
43429;SDS011;29028;43.234;27.896;2023-01-20T16:47:49;4.00;;;2.30;;
43429;SDS011;29028;43.234;27.896;2023-01-20T16:48:10;3.58;;;1.70;;
43429;SDS011;29028;43.234;27.896;2023-01-20T16:48:32;3.90;;;1.50;;
43429;SDS011;29028;43.234;27.896;2023-01-20T16:48:53;4.50;;;1.65;;
43429;SDS011;29028;43.234;27.896;2023-01-20T16:49:18;3.85;;;1.90;;
43429;SDS011;29028;43.234;27.896;2023-01-20T16:49:39;3.22;;;1.55;;
43429;SDS011;29028;43.234;27.896;2023-01-20T16:50:01;2.88;;;1.48;;
43429;SDS011;29028;43.234;27.896;2023-01-20T16:50:22;3.65;;;1.73;;
43429;SDS011;29028;43.234;27.896;2023-01-20T16:50:46;2.78;;;1.80;;
43429;SDS011;29028;43.234;27.896;2023-01-20T16:51:10;3.70;;;2.00;;
43429;SDS011;29028;43.234;27.896;2023-01-20T16:51:32;3.97;;;2.03;;
43429;SDS011;29028;43.234;27.896;2023-01-20T16:51:52;3.97;;;2.00;;
43429;SDS011;29028;43.234;27.896;2023-01-20T16:52:13;4.15;;;2.10;;
43429;SDS011;29028;43.234;27.896;2023-01-20T16:52:35;4.15;;;1.77;;
43429;SDS011;29028;43.234;27.896;2023-01-20T16:52:56;3.22;;;1.80;;
43429;SDS011;29028;43.234;27.896;2023-01-20T16:53:17;3.17;;;1.60;;
43429;SDS011;29028;43.234;27.896;2023-01-20T16:53:39;3.38;;;1.60;;
43429;SDS011;29028;43.234;27.896;2023-01-20T16:54:00;4.32;;;1.70;;
43429;SDS011;29028;43.234;27.896;2023-01-20T16:54:21;4.30;;;1.80;;
43429;SDS011;29028;43.234;27.896;2023-01-20T16:54:43;4.68;;;1.98;;
43429;SDS011;29028;43.234;27.896;2023-01-20T16:55:07;3.50;;;1.88;;
43429;SDS011;29028;43.234;27.896;2023-01-20T16:55:28;3.08;;;1.60;;
43429;SDS011;29028;43.234;27.896;2023-01-20T16:55:49;3.05;;;1.67;;
43429;SDS011;29028;43.234;27.896;2023-01-20T16:56:12;4.07;;;1.60;;
43429;SDS011;29028;43.234;27.896;2023-01-20T16:56:33;3.40;;;1.52;;
43429;SDS011;29028;43.234;27.896;2023-01-20T16:56:54;3.58;;;1.90;;
43429;SDS011;29028;43.234;27.896;2023-01-20T16:57:15;4.03;;;1.90;;
43429;SDS011;29028;43.234;27.896;2023-01-20T16:57:40;3.63;;;1.88;;
43429;SDS011;29028;43.234;27.896;2023-01-20T16:58:02;4.22;;;1.85;;
43429;SDS011;29028;43.234;27.896;2023-01-20T16:58:23;5.43;;;1.80;;
43429;SDS011;29028;43.234;27.896;2023-01-20T16:58:45;4.18;;;1.70;;
43429;SDS011;29028;43.234;27.896;2023-01-20T16:59:07;5.70;;;2.10;;
43429;SDS011;29028;43.234;27.896;2023-01-20T16:59:28;7.97;;;2.00;;
43429;SDS011;29028;43.234;27.896;2023-01-20T16:59:50;7.43;;;1.95;;
43429;SDS011;29028;43.234;27.896;2023-01-20T17:00:12;3.97;;;1.77;;
43429;SDS011;29028;43.234;27.896;2023-01-20T17:00:33;5.53;;;2.00;;
43429;SDS011;29028;43.234;27.896;2023-01-20T17:00:56;5.07;;;1.60;;
43429;SDS011;29028;43.234;27.896;2023-01-20T17:01:17;5.35;;;1.50;;
43429;SDS011;29028;43.234;27.896;2023-01-20T17:01:43;6.78;;;1.88;;
43429;SDS011;29028;43.234;27.896;2023-01-20T17:02:07;5.38;;;2.03;;
43429;SDS011;29028;43.234;27.896;2023-01-20T17:02:30;6.18;;;2.28;;
43429;SDS011;29028;43.234;27.896;2023-01-20T17:02:53;4.90;;;1.88;;
43429;SDS011;29028;43.234;27.896;2023-01-20T17:03:14;3.70;;;1.88;;
43429;SDS011;29028;43.234;27.896;2023-01-20T17:03:35;4.80;;;2.00;;
43429;SDS011;29028;43.234;27.896;2023-01-20T17:03:57;4.23;;;1.90;;
43429;SDS011;29028;43.234;27.896;2023-01-20T17:04:18;4.53;;;1.98;;
43429;SDS011;29028;43.234;27.896;2023-01-20T17:04:40;4.65;;;2.00;;
43429;SDS011;29028;43.234;27.896;2023-01-20T17:05:01;5.03;;;1.90;;
43429;SDS011;29028;43.234;27.896;2023-01-20T17:05:22;5.03;;;2.08;;
43429;SDS011;29028;43.234;27.896;2023-01-20T17:05:44;5.82;;;2.10;;
43429;SDS011;29028;43.234;27.896;2023-01-20T17:06:11;5.57;;;2.00;;
43429;SDS011;29028;43.234;27.896;2023-01-20T17:06:33;3.85;;;1.90;;
43429;SDS011;29028;43.234;27.896;2023-01-20T17:06:54;5.13;;;2.05;;
43429;SDS011;29028;43.234;27.896;2023-01-20T17:07:16;5.32;;;2.40;;
43429;SDS011;29028;43.234;27.896;2023-01-20T17:07:37;4.72;;;2.13;;
43429;SDS011;29028;43.234;27.896;2023-01-20T17:07:58;3.75;;;2.03;;
43429;SDS011;29028;43.234;27.896;2023-01-20T17:08:19;4.00;;;2.10;;
43429;SDS011;29028;43.234;27.896;2023-01-20T17:08:41;3.20;;;1.90;;
43429;SDS011;29028;43.234;27.896;2023-01-20T17:09:03;3.40;;;1.70;;
43429;SDS011;29028;43.234;27.896;2023-01-20T17:09:24;3.60;;;1.60;;
43429;SDS011;29028;43.234;27.896;2023-01-20T17:09:45;4.73;;;1.80;;
43429;SDS011;29028;43.234;27.896;2023-01-20T17:10:07;4.65;;;1.60;;
43429;SDS011;29028;43.234;27.896;2023-01-20T17:10:29;3.13;;;1.60;;
43429;SDS011;29028;43.234;27.896;2023-01-20T17:10:51;4.82;;;1.95;;
43429;SDS011;29028;43.234;27.896;2023-01-20T17:11:15;4.10;;;2.00;;
43429;SDS011;29028;43.234;27.896;2023-01-20T17:11:36;5.15;;;1.88;;
43429;SDS011;29028;43.234;27.896;2023-01-20T17:11:59;5.10;;;1.70;;
43429;SDS011;29028;43.234;27.896;2023-01-20T17:12:20;5.37;;;1.80;;
43429;SDS011;29028;43.234;27.896;2023-01-20T17:12:41;3.72;;;1.60;;
43429;SDS011;29028;43.234;27.896;2023-01-20T17:13:03;4.53;;;1.60;;
43429;SDS011;29028;43.234;27.896;2023-01-20T17:13:29;4.93;;;1.73;;
43429;SDS011;29028;43.234;27.896;2023-01-20T17:13:54;3.50;;;1.80;;
43429;SDS011;29028;43.234;27.896;2023-01-20T17:14:15;6.22;;;1.90;;
43429;SDS011;29028;43.234;27.896;2023-01-20T17:14:36;4.43;;;1.80;;
43429;SDS011;29028;43.234;27.896;2023-01-20T17:14:58;5.28;;;1.98;;
43429;SDS011;29028;43.234;27.896;2023-01-20T17:15:19;4.78;;;1.85;;
43429;SDS011;29028;43.234;27.896;2023-01-20T17:15:41;5.40;;;1.77;;
43429;SDS011;29028;43.234;27.896;2023-01-20T17:16:03;5.43;;;1.90;;
43429;SDS011;29028;43.234;27.896;2023-01-20T17:16:24;4.18;;;1.63;;
43429;SDS011;29028;43.234;27.896;2023-01-20T17:16:45;5.35;;;1.50;;
43429;SDS011;29028;43.234;27.896;2023-01-20T17:17:06;4.63;;;1.50;;
43429;SDS011;29028;43.234;27.896;2023-01-20T17:17:28;5.43;;;1.60;;
43429;SDS011;29028;43.234;27.896;2023-01-20T17:17:49;5.65;;;1.70;;
43429;SDS011;29028;43.234;27.896;2023-01-20T17:18:10;4.65;;;1.58;;
43429;SDS011;29028;43.234;27.896;2023-01-20T17:18:31;4.15;;;1.60;;
43429;SDS011;29028;43.234;27.896;2023-01-20T17:18:53;3.30;;;1.60;;
43429;SDS011;29028;43.234;27.896;2023-01-20T17:19:17;4.30;;;1.60;;
43429;SDS011;29028;43.234;27.896;2023-01-20T17:19:38;4.95;;;1.65;;
43429;SDS011;29028;43.234;27.896;2023-01-20T17:19:58;5.72;;;1.90;;
43429;SDS011;29028;43.234;27.896;2023-01-20T17:20:19;6.03;;;2.00;;
43429;SDS011;29028;43.234;27.896;2023-01-20T17:20:42;5.80;;;2.33;;
43429;SDS011;29028;43.234;27.896;2023-01-20T17:21:03;4.13;;;1.95;;
43429;SDS011;29028;43.234;27.896;2023-01-20T17:21:27;8.30;;;2.22;;
43429;SDS011;29028;43.234;27.896;2023-01-20T17:21:49;3.75;;;1.70;;
43429;SDS011;29028;43.234;27.896;2023-01-20T17:22:12;5.10;;;1.80;;
43429;SDS011;29028;43.234;27.896;2023-01-20T17:22:32;5.55;;;1.90;;
43429;SDS011;29028;43.234;27.896;2023-01-20T17:22:53;4.13;;;1.70;;
43429;SDS011;29028;43.234;27.896;2023-01-20T17:23:15;6.57;;;2.40;;